This is the latest recevied weather packets stored in our database for station/object PY1LEO-13. If no packets are shown the sender has not sent any weather packets the latest 10 day(s).
| Time | Temp. | Humidity | Pressure | Rain* | Wind** | Luminosity | Snow |
|---|---|---|---|---|---|---|---|
| 1777736462 | 32.78° C | 48% | 1015.1 hPa | - | - | - | - |
| 1777736162 | 32.22° C | 47% | 1015 hPa | - | - | - | - |
| 1777735863 | 30° C | 54% | 1015 hPa | - | - | - | - |
| 1777735562 | 29.44° C | 56% | 1015.1 hPa | - | - | - | - |
| 1777735263 | 32.22° C | 49% | 1015 hPa | - | - | - | - |
| 1777734962 | 31.11° C | 48% | 1015 hPa | - | - | - | - |
| 1777734662 | 31.11° C | 53% | 1015.1 hPa | - | - | - | - |
| 1777734363 | 28.89° C | 57% | 1015.1 hPa | - | - | - | - |
| 1777734062 | 28.89° C | 57% | 1015.1 hPa | - | - | - | - |
| 1777733763 | 29.44° C | 55% | 1015.1 hPa | - | - | - | - |
| 1777733462 | 28.33° C | 56% | 1015.1 hPa | - | - | - | - |
| 1777733162 | 28.89° C | 53% | 1015.2 hPa | - | - | - | - |
| 1777732863 | 28.33° C | 55% | 1015.2 hPa | - | - | - | - |
| 1777732562 | 28.33° C | 55% | 1015.2 hPa | - | - | - | - |
| 1777732262 | 28.33° C | 55% | 1015.2 hPa | - | - | - | - |
| 1777731963 | 28.33° C | 55% | 1015.3 hPa | - | - | - | - |
| 1777731662 | 28.33° C | 55% | 1015.3 hPa | - | - | - | - |
| 1777731363 | 28.33° C | 55% | 1015.4 hPa | - | - | - | - |
| 1777731062 | 28.33° C | 56% | 1015.5 hPa | - | - | - | - |
| 1777730462 | 28.33° C | 56% | 1015.6 hPa | - | - | - | - |
| 1777730163 | 28.33° C | 58% | 1015.6 hPa | - | - | - | - |
| 1777729862 | 28.89° C | 57% | 1015.8 hPa | - | - | - | - |
| 1777729562 | 31.11° C | 50% | 1015.8 hPa | - | - | - | - |
| 1777729262 | 30° C | 53% | 1015.8 hPa | - | - | - | - |
| 1777728962 | 30° C | 55% | 1015.9 hPa | - | - | - | - |
* Rain since midnight (hover to see other rain measurements)
** Current wind speed in m/s (hover to see current wind gust speed)